Time;durP1;ratioP1;P1;durP2;ratioP2;P2;SDS_P1;SDS_P2;PMS_P1;PMS_P2;Temp;Humidity;BMP_temperature;BMP_pressure;BME280_temperature;BME280_humidity;BME280_pressure;Samples;Min_cycle;Max_cycle;Signal;HPM_P1;HPM_P2
2022/01/05 00:01:34;;;;;;;;;;;4.80;99.90;;;;;;4979894;28;19961;-80
2022/01/05 00:04:01;;;;;;;;;;;4.80;99.90;;;;;;4978591;28;19976;-80
2022/01/05 00:06:28;;;;;;;;;;;4.50;99.90;;;;;;4977853;28;20044;-80
2022/01/05 00:08:54;;;;;;;;;;;4.80;99.90;;;;;;4979584;28;20364;-81
2022/01/05 00:11:22;;;;;;;;;;;4.70;99.90;;;;;;4979432;28;19968;-81
2022/01/05 00:13:49;;;;;;;;;;;4.70;99.90;;;;;;4987828;28;19926;-79
2022/01/05 00:16:15;;;;;;;;;;;4.10;99.90;;;;;;4988353;28;19937;-78
2022/01/05 00:18:42;;;;;;;;;;;4.80;99.90;;;;;;4989275;28;19926;-79
2022/01/05 00:21:10;;;;;;;;;;;4.80;99.90;;;;;;4989347;28;19926;-79
2022/01/05 00:23:36;;;;;;;;;;;4.60;99.90;;;;;;4988009;28;19937;-80
2022/01/05 00:26:04;;;;;;;;;;;4.70;99.90;;;;;;4986884;28;19992;-79
2022/01/05 00:28:31;;;;;;;;;;;4.70;99.90;;;;;;4986988;28;19926;-80
2022/01/05 00:30:59;;;;;;;;;;;5.00;99.90;;;;;;4984766;28;19926;-80
2022/01/05 00:33:26;;;;;;;;;;;4.70;99.90;;;;;;4984021;28;19930;-81
2022/01/05 00:35:52;;;;;;;;;;;4.60;99.90;;;;;;4981825;28;19926;-81
2022/01/05 00:38:20;;;;;;;;;;;4.70;99.90;;;;;;4982337;28;19957;-81
2022/01/05 00:40:46;;;;;;;;;;;4.70;99.90;;;;;;4980635;28;19999;-81
2022/01/05 00:43:13;;;;;;;;;;;4.70;99.90;;;;;;4982111;28;19972;-80
2022/01/05 00:45:39;;;;;;;;;;;4.70;99.90;;;;;;4981827;28;19977;-81
2022/01/05 00:48:06;;;;;;;;;;;;;;;;;;4981173;28;20023;-81
2022/01/05 00:50:33;;;;;;;;;;;;;;;;;;4981121;28;19926;-81
2022/01/05 00:53:01;;;;;;;;;;;;;;;;;;4981470;28;19976;-80
2022/01/05 00:55:27;;;;;;;;;;;;;;;;;;4981620;28;19926;-81
2022/01/05 00:57:54;;;;;;;;;;;;;;;;;;4981358;28;19926;-81
2022/01/05 01:00:21;;;;;;;;;;;;;;;;;;4980854;28;19926;-80
2022/01/05 01:02:48;;;;;;;;;;;;;;;;;;4983476;28;19927;-80
2022/01/05 01:05:15;;;;;;;;;;;;;;;;;;4986523;28;19926;-79
2022/01/05 01:07:42;;;;;;;;;;;;;;;;;;4985719;28;19949;-80
2022/01/05 01:10:09;;;;;;;;;;;;;;;;;;4986714;28;19926;-79
2022/01/05 01:12:36;;;;;;;;;;;;;;;;;;4987005;28;20144;-80
2022/01/05 01:15:03;;;;;;;;;;;;;;;;;;4985573;28;19930;-79
2022/01/05 01:17:30;;;;;;;;;;;;;;;;;;4987275;28;19934;-80
2022/01/05 01:19:57;;;;;;;;;;;;;;;;;;4983824;28;19930;-80
2022/01/05 01:22:26;;;;;;;;;;;;;;;;;;4983359;28;19926;-81
2022/01/05 01:24:53;;;;;;;;;;;;;;;;;;4980017;28;19932;-80
2022/01/05 01:27:20;;;;;;;;;;;;;;;;;;4981045;28;19949;-80
2022/01/05 01:29:46;;;;;;;;;;;;;;;;;;4979636;28;19983;-79
2022/01/05 01:32:13;;;;;;;;;;;;;;;;;;4980185;28;20063;-80
2022/01/05 01:34:40;;;;;;;;;;;;;;;;;;4979460;28;19977;-80
2022/01/05 01:37:07;;;;;;;;;;;;;;;;;;4980510;28;19980;-80
2022/01/05 01:39:34;;;;;;;;;;;;;;;;;;4980656;28;19926;-81
2022/01/05 01:42:00;;;;;;;;;;;;;;;;;;4981110;28;19926;-81
2022/01/05 01:44:27;;;;;;;;;;;;;;;;;;4980188;28;19948;-80
2022/01/05 01:46:54;;;;;;;;;;;;;;;;;;4980699;28;19973;-81
2022/01/05 01:49:21;;;;;;;;;;;;;;;;;;4983649;28;19927;-79
2022/01/05 01:51:48;;;;;;;;;;;;;;;;;;4988934;28;19979;-78
2022/01/05 01:54:15;;;;;;;;;;;;;;;;;;4991253;28;20450;-79
2022/01/05 01:56:41;;;;;;;;;;;;;;;;;;4991221;28;19933;-79
2022/01/05 01:59:08;;;;;;;;;;;;;;;;;;4986727;28;19926;-79
2022/01/05 02:01:35;;;;;;;;;;;;;;;;;;4983541;28;19926;-80
2022/01/05 02:04:02;;;;;;;;;;;;;;;;;;4980492;28;19942;-80
2022/01/05 02:06:29;;;;;;;;;;;;;;;;;;4980235;28;20356;-81
2022/01/05 02:08:56;;;;;;;;;;;;;;;;;;4979927;28;19926;-79
2022/01/05 02:11:22;;;;;;;;;;;;;;;;;;4979869;28;19926;-80
2022/01/05 02:13:49;;;;;;;;;;;;;;;;;;4979250;28;19948;-80
2022/01/05 02:16:16;;;;;;;;;;;;;;;;;;4981134;28;19937;-79
2022/01/05 02:18:58;;;;;;;;;;;;;;;;;;4979492;28;19926;-78
2022/01/05 02:21:25;;;;;;;;;;;;;;;;;;4975478;28;19980;-79
2022/01/05 02:23:52;;;;;;;;;;;;;;;;;;4976193;28;19980;-79
2022/01/05 02:26:19;;;;;;;;;;;;;;;;;;4975853;28;19976;-79
2022/01/05 02:28:46;;;;;;;;;;;;;;;;;;4976432;28;19976;-80
2022/01/05 02:31:13;;;;;;;;;;;;;;;;;;4976620;28;19926;-79
2022/01/05 02:33:40;;;;;;;;;;;;;;;;;;4978174;28;19976;-79
2022/01/05 02:36:07;;;;;;;;;;;;;;;;;;4979621;28;20268;-79
2022/01/05 02:38:33;;;;;;;;;;;;;;;;;;4977992;28;19926;-80
2022/01/05 02:41:00;;;;;;;;;;;;;;;;;;4978096;28;20282;-80
2022/01/05 02:43:27;;;;;;;;;;;;;;;;;;4978764;28;19926;-80
2022/01/05 02:45:54;;;;;;;;;;;;;;;;;;4978412;28;19926;-79
2022/01/05 02:48:21;;;;;;;;;;;;;;;;;;4978988;28;19965;-81
2022/01/05 02:50:50;;;;;;;;;;;;;;;;;;4978600;28;20408;-80
2022/01/05 02:53:19;;;;;;;;;;;;;;;;;;4979000;28;19926;-81
2022/01/05 02:55:47;;;;;;;;;;;;;;;;;;4982378;28;20396;-79
2022/01/05 02:58:15;;;;;;;;;;;;;;;;;;4984326;28;19949;-79
2022/01/05 03:00:43;;;;;;;;;;;5.00;99.90;;;;;;4982684;28;19957;-80
2022/01/05 03:03:09;;;;;;;;;;;5.00;99.90;;;;;;4979312;28;19961;-80
2022/01/05 03:05:38;;;;;;;;;;;;;;;;;;4979179;28;19926;-80
2022/01/05 03:08:07;;;;;;;;;;;;;;;;;;4979303;28;19975;-81
2022/01/05 03:10:35;;;;;;;;;;;;;;;;;;4978537;28;19973;-80
2022/01/05 03:13:03;;;;;;;;;;;;;;;;;;4978964;28;19984;-80
2022/01/05 03:15:32;;;;;;;;;;;;;;;;;;4980272;28;19930;-80
2022/01/05 03:18:00;;;;;;;;;;;;;;;;;;4978680;28;19930;-81
2022/01/05 03:20:29;;;;;;;;;;;;;;;;;;4977907;28;19926;-80
2022/01/05 03:22:57;;;;;;;;;;;;;;;;;;4978195;28;19930;-81
2022/01/05 03:25:25;;;;;;;;;;;;;;;;;;4976447;28;19926;-80
2022/01/05 03:27:53;;;;;;;;;;;5.00;99.90;;;;;;4979270;28;20446;-81
2022/01/05 03:30:20;;;;;;;;;;;4.90;99.90;;;;;;4979063;28;19927;-80
2022/01/05 03:33:07;;;;;;;;;;;4.90;99.90;;;;;;4980113;28;19936;-80
2022/01/05 03:35:35;;;;;;;;;;;4.90;99.90;;;;;;4980085;28;19976;-80
2022/01/05 03:38:01;;;;;;;;;;;4.80;99.90;;;;;;4981281;28;19926;-81
2022/01/05 03:40:28;;;;;;;;;;;4.90;99.90;;;;;;4979583;28;20408;-81
2022/01/05 03:42:56;;;;;;;;;;;4.80;99.90;;;;;;4982352;28;19948;-79
2022/01/05 03:45:22;;;;;;;;;;;4.90;99.90;;;;;;4987495;28;19926;-79
2022/01/05 03:47:49;;;;;;;;;;;4.80;99.90;;;;;;4986238;28;19934;-80
2022/01/05 03:50:15;;;;;;;;;;;4.90;99.90;;;;;;4982281;28;20346;-81
2022/01/05 03:52:42;;;;;;;;;;;5.00;99.90;;;;;;4979928;28;19927;-80
2022/01/05 03:55:09;;;;;;;;;;;4.80;99.90;;;;;;4979697;28;19927;-82
2022/01/05 03:57:35;;;;;;;;;;;4.80;99.90;;;;;;4979415;28;19979;-80
2022/01/05 04:00:04;;;;;;;;;;;4.80;99.90;;;;;;4987882;28;19930;-80
2022/01/05 04:02:30;;;;;;;;;;;4.50;99.90;;;;;;4980826;28;19960;-80
2022/01/05 04:04:57;;;;;;;;;;;4.70;99.90;;;;;;4979676;28;19972;-81
2022/01/05 04:07:23;;;;;;;;;;;4.60;99.90;;;;;;4979930;28;19961;-80
2022/01/05 04:09:50;;;;;;;;;;;4.40;99.90;;;;;;4978587;28;20534;-80
2022/01/05 04:12:16;;;;;;;;;;;4.20;99.90;;;;;;4978720;28;20411;-80
2022/01/05 04:14:43;;;;;;;;;;;4.50;99.90;;;;;;4982566;28;19926;-78
2022/01/05 04:17:11;;;;;;;;;;;4.00;99.90;;;;;;4987141;28;19926;-78
2022/01/05 04:19:37;;;;;;;;;;;4.30;99.90;;;;;;4986160;28;19934;-78
2022/01/05 04:22:04;;;;;;;;;;;4.10;99.90;;;;;;4987543;28;19973;-79
2022/01/05 04:24:30;;;;;;;;;;;4.40;99.90;;;;;;4987912;28;19930;-79
2022/01/05 04:26:57;;;;;;;;;;;4.00;99.90;;;;;;4986280;28;20032;-79
2022/01/05 04:29:23;;;;;;;;;;;4.30;99.90;;;;;;4986204;28;19926;-79
2022/01/05 04:31:50;;;;;;;;;;;4.20;99.90;;;;;;5024544;22;19968;-79
2022/01/05 04:34:18;;;;;;;;;;;4.20;99.90;;;;;;5003861;28;20395;-79
2022/01/05 04:36:45;;;;;;;;;;;4.10;99.90;;;;;;5006072;28;19949;-82
2022/01/05 04:39:11;;;;;;;;;;;4.10;99.90;;;;;;5001732;28;19926;-80
2022/01/05 04:41:38;;;;;;;;;;;4.00;99.90;;;;;;5004003;28;19925;-79
2022/01/05 04:44:05;;;;;;;;;;;4.10;99.90;;;;;;5007441;28;19932;-79
2022/01/05 04:46:31;;;;;;;;;;;3.60;99.90;;;;;;5013184;28;19926;-80
2022/01/05 04:48:58;;;;;;;;;;;3.40;99.90;;;;;;5014877;28;19936;-81
2022/01/05 04:51:25;;;;;;;;;;;3.10;99.90;;;;;;5014686;28;19932;-81
2022/01/05 04:53:52;;;;;;;;;;;3.20;99.90;;;;;;5009130;28;19930;-80
2022/01/05 04:56:19;;;;;;;;;;;3.10;99.90;;;;;;5006193;28;19925;-80
2022/01/05 04:58:45;;;;;;;;;;;3.20;99.90;;;;;;5009062;28;20339;-80
2022/01/05 05:01:12;;;;;;;;;;;3.90;99.90;;;;;;5004984;28;19929;-80
2022/01/05 05:03:38;;;;;;;;;;;3.80;99.90;;;;;;5004869;28;19925;-82
2022/01/05 05:06:05;;;;;;;;;;;3.40;99.90;;;;;;5005652;28;20012;-83
2022/01/05 05:08:33;;;;;;;;;;;4.00;99.90;;;;;;5000715;28;19971;-81
2022/01/05 05:10:59;;;;;;;;;;;4.00;99.90;;;;;;4997187;28;19957;-81
2022/01/05 05:13:26;;;;;;;;;;;3.80;99.90;;;;;;4998394;28;19930;-83
2022/01/05 05:15:53;;;;;;;;;;;3.90;99.90;;;;;;4997923;28;19929;-83
2022/01/05 05:18:19;;;;;;;;;;;3.90;99.90;;;;;;4997937;28;19926;-82
2022/01/05 05:20:46;;;;;;;;;;;3.80;99.90;;;;;;4998679;28;20308;-83
2022/01/05 05:23:12;;;;;;;;;;;3.50;99.90;;;;;;5005647;28;20304;-81
2022/01/05 05:25:41;;;;;;;;;;;3.80;99.90;;;;;;5012090;28;19993;-80
2022/01/05 05:28:07;;;;;;;;;;;3.50;99.90;;;;;;5010026;28;19926;-82
2022/01/05 05:30:34;;;;;;;;;;;3.40;99.90;;;;;;5003180;28;19926;-81
2022/01/05 05:33:01;;;;;;;;;;;2.90;99.90;;;;;;4998598;28;20356;-82
2022/01/05 05:35:27;;;;;;;;;;;3.00;99.90;;;;;;4998069;28;19933;-81
2022/01/05 05:37:54;;;;;;;;;;;3.90;99.90;;;;;;4996790;28;19987;-80
2022/01/05 05:40:21;;;;;;;;;;;3.20;99.90;;;;;;4997523;28;19926;-82
2022/01/05 05:42:49;;;;;;;;;;;3.90;99.90;;;;;;4997783;28;19976;-81
2022/01/05 05:45:16;;;;;;;;;;;4.70;99.90;;;;;;4998033;28;19925;-81
2022/01/05 05:47:43;;;;;;;;;;;3.60;99.90;;;;;;4998197;28;19930;-80
2022/01/05 05:50:10;;;;;;;;;;;3.20;99.90;;;;;;4999143;28;19975;-81
2022/01/05 05:52:37;;;;;;;;;;;3.80;99.90;;;;;;5006911;28;19926;-81
2022/01/05 05:55:04;;;;;;;;;;;2.90;99.90;;;;;;5007620;28;19986;-79
2022/01/05 05:57:31;;;;;;;;;;;4.10;99.90;;;;;;5000608;28;19926;-82
2022/01/05 05:59:59;;;;;;;;;;;3.10;99.90;;;;;;5004285;28;19993;-81
2022/01/05 06:02:29;;;;;;;;;;;2.80;99.90;;;;;;5008335;28;19975;-82
2022/01/05 06:04:56;;;;;;;;;;;3.50;99.90;;;;;;5007120;28;19926;-83
2022/01/05 06:07:23;;;;;;;;;;;3.50;99.90;;;;;;5001291;28;19995;-79
2022/01/05 06:09:50;;;;;;;;;;;3.70;99.90;;;;;;5004625;28;20361;-83
2022/01/05 06:12:17;;;;;;;;;;;2.40;99.90;;;;;;5004488;28;19926;-79
2022/01/05 06:14:43;;;;;;;;;;;2.90;99.90;;;;;;5002560;28;19936;-83
2022/01/05 06:17:12;;;;;;;;;;;3.60;99.90;;;;;;4996732;28;20369;-82
2022/01/05 06:19:39;;;;;;;;;;;3.90;99.90;;;;;;4999729;28;19925;-82
2022/01/05 06:22:05;;;;;;;;;;;3.90;99.90;;;;;;4998137;28;19933;-80
2022/01/05 06:24:34;;;;;;;;;;;3.90;99.90;;;;;;4995849;28;19926;-82
2022/01/05 06:27:01;;;;;;;;;;;3.70;99.90;;;;;;4996328;28;19930;-83
2022/01/05 06:29:27;;;;;;;;;;;3.00;99.90;;;;;;4996020;28;19948;-83
2022/01/05 06:31:54;;;;;;;;;;;3.10;99.90;;;;;;4996319;28;19925;-83
2022/01/05 06:34:22;;;;;;;;;;;4.10;99.90;;;;;;5003154;28;19926;-82
2022/01/05 06:36:51;;;;;;;;;;;3.10;99.90;;;;;;5015587;28;19914;-81
2022/01/05 06:39:18;;;;;;;;;;;3.70;99.90;;;;;;5003225;28;19979;-83
2022/01/05 06:41:44;;;;;;;;;;;3.80;99.90;;;;;;5001842;28;19933;-83
2022/01/05 06:44:11;;;;;;;;;;;2.90;99.90;;;;;;5014549;28;19924;-82
2022/01/05 06:46:37;;;;;;;;;;;3.60;99.90;;;;;;5010875;28;19949;-82
2022/01/05 06:49:04;;;;;;;;;;;3.60;99.90;;;;;;5002701;28;19971;-82
2022/01/05 06:51:32;;;;;;;;;;;3.70;99.90;;;;;;5001167;28;19925;-81
2022/01/05 06:53:59;;;;;;;;;;;2.80;99.90;;;;;;4996371;28;19933;-81
2022/01/05 06:56:25;;;;;;;;;;;4.00;99.90;;;;;;4996903;28;19926;-83
2022/01/05 06:58:52;;;;;;;;;;;3.30;99.90;;;;;;4997306;28;19944;-81
2022/01/05 07:01:19;;;;;;;;;;;3.50;99.90;;;;;;4999135;28;19926;-82
2022/01/05 07:03:46;;;;;;;;;;;3.70;99.90;;;;;;5000654;28;19926;-83
2022/01/05 07:06:12;;;;;;;;;;;2.90;99.90;;;;;;5001142;28;20385;-83
2022/01/05 07:08:40;;;;;;;;;;;3.40;99.90;;;;;;5002234;28;19933;-82
2022/01/05 07:11:07;;;;;;;;;;;4.10;99.90;;;;;;5001489;28;19933;-83
2022/01/05 07:13:33;;;;;;;;;;;3.60;99.90;;;;;;5002053;28;19926;-83
2022/01/05 07:16:00;;;;;;;;;;;3.10;99.90;;;;;;5001779;28;20357;-83
2022/01/05 07:18:27;;;;;;;;;;;3.40;99.90;;;;;;5004574;28;19926;-82
2022/01/05 07:20:53;;;;;;;;;;;3.90;99.90;;;;;;5012169;28;19993;-81
2022/01/05 07:23:20;;;;;;;;;;;3.10;99.90;;;;;;5019623;28;19939;-81
2022/01/05 07:25:48;;;;;;;;;;;3.40;99.90;;;;;;5019407;28;19913;-82
2022/01/05 07:28:16;;;;;;;;;;;2.90;99.90;;;;;;5019064;28;19936;-79
2022/01/05 07:30:43;;;;;;;;;;;2.90;99.90;;;;;;5019088;28;19926;-82
2022/01/05 07:33:09;;;;;;;;;;;3.50;99.90;;;;;;5019161;28;19939;-80
2022/01/05 07:35:36;;;;;;;;;;;3.80;99.90;;;;;;5019013;28;19936;-81
2022/01/05 07:38:02;;;;;;;;;;;3.70;99.90;;;;;;5018589;28;19936;-82
2022/01/05 07:40:29;;;;;;;;;;;2.90;99.90;;;;;;5016555;28;19926;-80
2022/01/05 07:42:57;;;;;;;;;;;3.00;99.90;;;;;;5007091;28;19930;-81
2022/01/05 07:45:23;;;;;;;;;;;4.00;99.90;;;;;;5008120;28;19926;-82
2022/01/05 07:47:50;;;;;;;;;;;3.00;99.90;;;;;;5007504;28;19926;-81
2022/01/05 07:50:30;;;;;;;;;;;3.70;99.90;;;;;;5004854;28;19988;-83
2022/01/05 07:53:00;;;;;;;;;;;3.70;99.90;;;;;;5001511;28;19925;-80
2022/01/05 07:55:27;;;;;;;;;;;4.10;99.90;;;;;;5000822;28;20066;-80
2022/01/05 07:57:54;;;;;;;;;;;3.80;99.90;;;;;;5004420;28;19925;-83
2022/01/05 08:00:22;;;;;;;;;;;3.80;99.90;;;;;;5006120;28;19937;-80
2022/01/05 08:02:48;;;;;;;;;;;3.60;99.90;;;;;;5009256;28;19932;-81
2022/01/05 08:05:14;;;;;;;;;;;3.30;99.90;;;;;;5013144;28;19926;-79
2022/01/05 08:07:41;;;;;;;;;;;3.70;99.90;;;;;;5007398;28;19967;-80
2022/01/05 08:10:09;;;;;;;;;;;3.80;99.90;;;;;;5006164;28;19948;-80
2022/01/05 08:12:35;;;;;;;;;;;3.90;99.90;;;;;;5008267;28;20347;-82
2022/01/05 08:15:02;;;;;;;;;;;3.20;99.90;;;;;;5006928;28;19941;-85
2022/01/05 08:17:30;;;;;;;;;;;2.80;99.90;;;;;;5003263;28;19926;-83
2022/01/05 08:20:03;;;;;;;;;;;4.00;99.90;;;;;;5000023;28;19998;-81
2022/01/05 08:22:30;;;;;;;;;;;3.80;99.90;;;;;;5000499;28;20439;-81
2022/01/05 08:24:57;;;;;;;;;;;2.70;99.90;;;;;;5000163;28;20292;-83
2022/01/05 08:27:23;;;;;;;;;;;2.80;99.90;;;;;;5000983;28;19929;-81
2022/01/05 08:29:50;;;;;;;;;;;4.80;99.90;;;;;;4999264;28;19929;-82
2022/01/05 08:32:16;;;;;;;;;;;3.00;99.90;;;;;;5000156;28;19969;-82
2022/01/05 08:34:44;;;;;;;;;;;3.30;99.90;;;;;;5000085;28;19972;-83
2022/01/05 08:37:11;;;;;;;;;;;3.90;99.90;;;;;;5001791;28;19975;-82
2022/01/05 08:39:37;;;;;;;;;;;3.10;99.90;;;;;;5002048;28;19976;-81
2022/01/05 08:42:04;;;;;;;;;;;3.70;99.90;;;;;;5000362;28;20343;-81
2022/01/05 08:44:31;;;;;;;;;;;3.90;99.90;;;;;;5000724;28;19987;-83
2022/01/05 08:46:58;;;;;;;;;;;3.00;99.90;;;;;;5001660;28;20021;-82
2022/01/05 08:49:24;;;;;;;;;;;4.00;99.90;;;;;;5003483;28;20404;-82
2022/01/05 08:51:54;;;;;;;;;;;2.90;99.90;;;;;;5006175;28;19925;-80
2022/01/05 08:54:20;;;;;;;;;;;3.60;99.90;;;;;;5003128;28;19945;-82
2022/01/05 08:56:48;;;;;;;;;;;2.90;99.90;;;;;;5000026;28;19933;-82
2022/01/05 08:59:14;;;;;;;;;;;3.70;99.90;;;;;;5000135;28;19984;-82
2022/01/05 09:01:43;;;;;;;;;;;3.00;99.90;;;;;;5000086;28;19926;-83
2022/01/05 09:04:09;;;;;;;;;;;2.70;99.90;;;;;;5000461;28;19926;-83
2022/01/05 09:06:36;;;;;;;;;;;3.80;99.90;;;;;;5000277;28;19973;-82
2022/01/05 09:09:04;;;;;;;;;;;3.30;99.90;;;;;;5002217;28;19926;-84
2022/01/05 09:11:31;;;;;;;;;;;3.90;99.90;;;;;;4999003;28;19934;-80
2022/01/05 09:13:58;;;;;;;;;;;4.50;99.90;;;;;;4998670;28;19926;-82
2022/01/05 09:16:25;;;;;;;;;;;3.80;99.90;;;;;;4997973;28;19925;-82
2022/01/05 09:18:52;;;;;;;;;;;3.30;99.90;;;;;;4998328;28;19933;-82
2022/01/05 09:21:19;;;;;;;;;;;3.70;99.90;;;;;;4998761;28;19973;-82
2022/01/05 09:23:45;;;;;;;;;;;3.30;99.90;;;;;;4997886;28;19930;-82
2022/01/05 09:26:14;;;;;;;;;;;3.60;99.90;;;;;;4998913;28;19926;-83
2022/01/05 09:28:43;;;;;;;;;;;4.20;99.90;;;;;;5005352;28;19945;-79
2022/01/05 09:31:10;;;;;;;;;;;3.60;99.90;;;;;;5010259;28;19926;-82
2022/01/05 09:33:37;;;;;;;;;;;3.90;99.90;;;;;;5011792;28;19926;-79
2022/01/05 09:36:10;;;;;;;;;;;3.60;99.90;;;;;;5006979;28;19930;-81
2022/01/05 09:41:56;;;;;;;;;;;4.70;99.90;;;;;;5006545;28;19961;-82
2022/01/05 09:44:11;;;;;;;;;;;4.20;99.90;;;;;;5000944;28;19933;-81
2022/01/05 09:46:45;;;;;;;;;;;4.00;99.90;;;;;;4999042;28;19952;-80
2022/01/05 09:49:13;;;;;;;;;;;3.80;99.90;;;;;;5000392;28;19933;-82
2022/01/05 09:51:41;;;;;;;;;;;4.80;99.90;;;;;;4999900;28;19926;-82
2022/01/05 09:54:08;;;;;;;;;;;4.30;99.90;;;;;;5004655;28;19981;-82
2022/01/05 09:56:36;;;;;;;;;;;3.60;99.90;;;;;;5015140;28;19930;-80
2022/01/05 09:59:04;;;;;;;;;;;4.00;99.90;;;;;;5006986;28;19932;-82
2022/01/05 10:01:31;;;;;;;;;;;4.00;99.90;;;;;;5001395;28;19925;-81
2022/01/05 10:03:58;;;;;;;;;;;4.70;99.90;;;;;;5013922;28;19926;-82
2022/01/05 10:06:24;;;;;;;;;;;4.00;99.90;;;;;;5011793;28;19941;-80
2022/01/05 10:08:51;;;;;;;;;;;4.50;99.90;;;;;;5010192;28;19972;-82
2022/01/05 10:11:20;;;;;;;;;;;5.70;99.90;;;;;;5007012;28;19925;-82
2022/01/05 10:13:51;;;;;;;;;;;5.10;99.90;;;;;;5002360;28;20773;-81
2022/01/05 10:16:18;;;;;;;;;;;5.60;99.90;;;;;;4999583;28;19948;-83
2022/01/05 10:18:45;;;;;;;;;;;5.30;99.90;;;;;;4999822;28;20009;-83
2022/01/05 10:21:14;;;;;;;;;;;4.80;99.90;;;;;;5000315;28;19925;-82
2022/01/05 10:23:41;;;;;;;;;;;4.90;99.90;;;;;;5001663;28;19926;-83
2022/01/05 10:26:17;;;;;;;;;;;4.50;99.90;;;;;;4999204;28;19926;-82
2022/01/05 10:28:45;;;;;;;;;;;5.00;99.90;;;;;;4999296;28;19956;-82
2022/01/05 10:31:15;;;;;;;;;;;4.70;98.60;;;;;;5006711;23;19997;-79
2022/01/05 10:33:42;;;;;;;;;;;4.60;78.20;;;;;;4986089;28;19926;-79
2022/01/05 10:36:08;;;;;;;;;;;5.00;94.60;;;;;;4984142;28;19926;-78
2022/01/05 10:38:35;;;;;;;;;;;5.30;99.90;;;;;;4983851;28;19930;-78
2022/01/05 10:41:14;;;;;;;;;;;5.30;99.90;;;;;;4984292;28;19926;-79
2022/01/05 10:43:55;;;;;;;;;;;5.40;99.60;;;;;;4985315;28;19953;-79
2022/01/05 10:46:36;;;;;;;;;;;5.10;99.90;;;;;;4984919;28;19948;-79
2022/01/05 10:49:03;;;;;;;;;;;5.50;99.90;;;;;;4986946;28;19926;-79
2022/01/05 10:51:31;;;;;;;;;;;5.20;76.70;;;;;;4984903;28;19926;-79
2022/01/05 10:54:10;;;;;;;;;;;5.30;65.00;;;;;;4984546;28;20292;-81
2022/01/05 10:56:36;;;;;;;;;;;5.50;92.70;;;;;;4981538;28;19926;-79
2022/01/05 10:59:03;;;;;;;;;;;5.30;67.30;;;;;;4979268;28;19926;-80
2022/01/05 11:01:31;;;;;;;;;;;5.10;65.60;;;;;;4979380;28;19938;-80
2022/01/05 11:03:59;;;;;;;;;;;5.70;97.90;;;;;;4978675;28;19957;-80
2022/01/05 11:06:25;;;;;;;;;;;5.30;75.50;;;;;;4978265;28;19937;-79
2022/01/05 11:08:52;;;;;;;;;;;5.00;58.70;;;;;;4977768;28;19934;-80
2022/01/05 11:11:32;;;;;;;;;;;4.90;65.20;;;;;;4978445;28;19933;-81
2022/01/05 11:13:59;;;;;;;;;;;5.20;71.10;;;;;;4979093;28;19934;-80
2022/01/05 11:16:26;;;;;;;;;;;4.80;77.80;;;;;;4978758;28;19973;-80
2022/01/05 11:19:11;;;;;;;;;;;5.10;99.50;;;;;;4979197;28;20005;-80
2022/01/05 11:21:39;;;;;;;;;;;5.50;72.00;;;;;;4979448;28;19961;-80
2022/01/05 11:24:06;;;;;;;;;;;5.70;76.60;;;;;;4979009;28;20083;-80
2022/01/05 11:26:35;;;;;;;;;;;5.40;35.50;;;;;;4981111;28;20342;-80
2022/01/05 11:29:03;;;;;;;;;;;5.60;61.10;;;;;;4980040;28;19960;-80
2022/01/05 11:31:30;;;;;;;;;;;5.20;70.80;;;;;;4979674;28;19973;-80
2022/01/05 11:33:57;;;;;;;;;;;5.10;52.20;;;;;;4987724;28;19926;-80
2022/01/05 11:36:24;;;;;;;;;;;5.20;64.20;;;;;;4990259;28;19949;-80
2022/01/05 11:38:51;;;;;;;;;;;5.00;35.30;;;;;;4984024;28;19926;-79
2022/01/05 11:41:18;;;;;;;;;;;4.90;42.10;;;;;;4982045;28;19940;-79
2022/01/05 11:43:46;;;;;;;;;;;5.20;57.90;;;;;;4980592;28;19930;-80
2022/01/05 11:46:16;;;;;;;;;;;5.00;92.30;;;;;;4978968;28;19952;-79
2022/01/05 11:48:57;;;;;;;;;;;5.30;53.80;;;;;;4981490;28;20384;-79
2022/01/05 11:51:29;;;;;;;;;;;5.30;47.50;;;;;;4981800;28;19972;-79
2022/01/05 11:54:11;;;;;;;;;;;5.30;63.50;;;;;;4982014;28;19932;-81
2022/01/05 11:56:40;;;;;;;;;;;5.70;31.30;;;;;;4982971;28;19954;-80
2022/01/05 11:59:18;;;;;;;;;;;6.00;40.70;;;;;;4981281;28;19970;-81
2022/01/05 12:01:56;;;;;;;;;;;5.70;53.30;;;;;;4980416;28;20010;-79
2022/01/05 12:04:23;;;;;;;;;;;6.00;19.00;;;;;;4981678;28;20320;-80
2022/01/05 12:07:16;;;;;;;;;;;5.80;18.00;;;;;;4981308;28;19980;-81
2022/01/05 12:09:50;;;;;;;;;;;5.90;17.00;;;;;;4981669;28;19926;-81
2022/01/05 12:12:25;;;;;;;;;;;5.70;20.70;;;;;;4982163;28;19957;-81
2022/01/05 12:14:51;;;;;;;;;;;5.90;35.10;;;;;;4982650;28;19948;-80
2022/01/05 12:17:20;;;;;;;;;;;5.80;13.70;;;;;;4981647;28;19963;-80
2022/01/05 12:20:02;;;;;;;;;;;5.70;23.90;;;;;;4977807;28;19927;-81
2022/01/05 12:22:29;;;;;;;;;;;5.60;20.50;;;;;;4978702;28;20330;-80
2022/01/05 12:25:09;;;;;;;;;;;5.70;36.80;;;;;;4977927;28;19980;-80
2022/01/05 12:27:37;;;;;;;;;;;5.80;25.90;;;;;;4979909;28;19930;-80
2022/01/05 12:30:31;;;;;;;;;;;5.70;20.40;;;;;;4980233;28;19926;-80
2022/01/05 12:33:01;;;;;;;;;;;6.40;43.10;;;;;;4981263;28;19926;-80
2022/01/05 12:35:28;;;;;;;;;;;5.60;25.40;;;;;;4982042;28;19926;-80
2022/01/05 12:37:58;;;;;;;;;;;5.10;20.00;;;;;;4982862;28;19927;-80
2022/01/05 12:40:27;;;;;;;;;;;5.50;50.90;;;;;;4983863;28;19965;-78
2022/01/05 12:43:12;;;;;;;;;;;5.60;71.20;;;;;;4986658;28;19926;-78
2022/01/05 12:45:46;;;;;;;;;;;5.50;49.50;;;;;;4988447;28;19927;-78
2022/01/05 12:48:27;;;;;;;;;;;5.50;52.20;;;;;;4989950;28;19927;-79
2022/01/05 12:50:54;;;;;;;;;;;5.40;86.70;;;;;;4984546;28;19926;-80
2022/01/05 12:53:34;;;;;;;;;;;5.20;80.70;;;;;;4979550;28;19930;-80
2022/01/05 12:56:02;;;;;;;;;;;5.40;99.90;;;;;;4978496;28;19941;-81
2022/01/05 12:58:33;;;;;;;;;;;5.40;48.80;;;;;;4978026;28;19973;-81
2022/01/05 13:00:59;;;;;;;;;;;5.20;91.70;;;;;;4977062;28;19957;-81
2022/01/05 13:03:32;;;;;;;;;;;5.30;99.90;;;;;;4977789;28;19965;-80
2022/01/05 13:06:13;;;;;;;;;;;5.40;91.10;;;;;;4977251;28;19933;-81
2022/01/05 13:08:45;;;;;;;;;;;5.30;99.90;;;;;;4979289;28;19937;-80
2022/01/05 13:11:13;;;;;;;;;;;5.20;99.90;;;;;;4978401;28;20389;-80
2022/01/05 13:13:42;;;;;;;;;;;5.40;99.00;;;;;;4979946;28;19926;-80
2022/01/05 13:16:09;;;;;;;;;;;5.30;99.90;;;;;;4976937;28;20408;-80
2022/01/05 13:18:35;;;;;;;;;;;5.20;93.20;;;;;;4977516;28;19936;-81
2022/01/05 13:21:02;;;;;;;;;;;5.00;99.90;;;;;;4979705;28;19926;-80
2022/01/05 13:23:28;;;;;;;;;;;5.20;99.90;;;;;;4980604;28;19972;-78
2022/01/05 13:25:55;;;;;;;;;;;5.10;99.90;;;;;;4980011;28;19926;-79
2022/01/05 13:28:23;;;;;;;;;;;5.30;99.90;;;;;;4981201;28;20301;-81
2022/01/05 13:30:49;;;;;;;;;;;5.20;99.90;;;;;;4983484;28;20389;-79
2022/01/05 13:33:16;;;;;;;;;;;5.20;99.90;;;;;;4985087;28;19930;-79
2022/01/05 13:35:42;;;;;;;;;;;4.90;99.90;;;;;;4982706;28;19930;-80
2022/01/05 13:38:12;;;;;;;;;;;4.90;99.90;;;;;;4977280;28;19948;-80
2022/01/05 13:40:39;;;;;;;;;;;4.90;99.90;;;;;;4981350;28;19980;-80
2022/01/05 13:43:06;;;;;;;;;;;5.00;99.90;;;;;;4982650;28;19930;-79
2022/01/05 13:45:35;;;;;;;;;;;5.40;99.90;;;;;;4980903;28;20044;-81
2022/01/05 13:48:03;;;;;;;;;;;5.20;99.90;;;;;;4982550;28;19965;-81
2022/01/05 13:50:33;;;;;;;;;;;4.80;99.90;;;;;;4980900;28;19926;-80
2022/01/05 13:53:01;;;;;;;;;;;4.80;99.90;;;;;;4985553;28;19952;-77
2022/01/05 13:55:29;;;;;;;;;;;4.90;99.90;;;;;;4987555;28;19927;-78
2022/01/05 13:58:14;;;;;;;;;;;4.70;99.90;;;;;;4986415;28;19980;-78
2022/01/05 14:00:43;;;;;;;;;;;4.90;99.90;;;;;;4981505;28;19950;-81
2022/01/05 14:03:22;;;;;;;;;;;4.60;99.90;;;;;;4976897;28;20427;-81
2022/01/05 14:05:49;;;;;;;;;;;4.90;99.90;;;;;;4977318;28;19971;-81
2022/01/05 14:08:15;;;;;;;;;;;4.80;99.90;;;;;;4977039;28;19970;-80
2022/01/05 14:10:42;;;;;;;;;;;4.60;99.90;;;;;;4977921;28;19966;-81
2022/01/05 14:13:10;;;;;;;;;;;4.80;99.90;;;;;;4977092;28;19926;-80
2022/01/05 14:15:37;;;;;;;;;;;4.80;99.90;;;;;;4976090;28;19930;-81
2022/01/05 14:18:06;;;;;;;;;;;4.70;99.90;;;;;;4976409;28;19926;-80
2022/01/05 14:20:42;;;;;;;;;;;4.80;99.90;;;;;;4976850;28;19952;-80
2022/01/05 14:23:09;;;;;;;;;;;4.70;99.90;;;;;;4976899;28;19934;-81
2022/01/05 14:25:37;;;;;;;;;;;4.80;99.90;;;;;;4977029;28;19926;-80
2022/01/05 14:28:15;;;;;;;;;;;4.80;99.90;;;;;;4980763;28;19926;-81
2022/01/05 14:30:49;;;;;;;;;;;4.70;99.90;;;;;;4978012;28;19926;-80
2022/01/05 14:33:26;;;;;;;;;;;4.70;99.90;;;;;;4983338;28;19968;-80
2022/01/05 14:35:52;;;;;;;;;;;4.60;99.90;;;;;;4984561;28;19926;-80
2022/01/05 14:38:19;;;;;;;;;;;4.50;99.90;;;;;;4985159;28;19926;-79
2022/01/05 14:40:45;;;;;;;;;;;4.40;99.90;;;;;;4990015;28;20017;-79
2022/01/05 14:43:14;;;;;;;;;;;4.30;99.90;;;;;;4990325;28;19926;-79
2022/01/05 14:45:42;;;;;;;;;;;4.10;99.90;;;;;;4988395;28;19937;-79
2022/01/05 14:48:08;;;;;;;;;;;4.00;99.90;;;;;;4985792;28;19927;-80
2022/01/05 14:50:38;;;;;;;;;;;4.10;99.90;;;;;;4982810;28;19926;-80
2022/01/05 14:53:04;;;;;;;;;;;4.20;99.90;;;;;;4983566;28;19926;-80
2022/01/05 14:55:32;;;;;;;;;;;4.30;99.90;;;;;;4983599;28;19926;-79
2022/01/05 14:57:59;;;;;;;;;;;4.10;99.90;;;;;;4984052;28;19934;-80
2022/01/05 15:00:26;;;;;;;;;;;4.10;99.90;;;;;;4984809;28;19926;-80